createdAt,value
2023-05-14T00:00:27.572Z,100.00
2023-05-14T00:02:54.566Z,100.00
2023-05-14T00:05:22.729Z,100.00
2023-05-14T00:07:49.400Z,100.00
2023-05-14T00:10:16.003Z,100.00
2023-05-14T00:12:42.653Z,100.00
2023-05-14T00:15:10.082Z,100.00
2023-05-14T00:17:37.117Z,100.00
2023-05-14T00:20:04.803Z,100.00
2023-05-14T00:22:32.778Z,100.00
2023-05-14T00:24:59.340Z,100.00
2023-05-14T00:27:26.058Z,100.00
2023-05-14T00:29:52.868Z,100.00
2023-05-14T00:32:19.545Z,100.00
2023-05-14T00:34:46.075Z,100.00
2023-05-14T00:37:13.003Z,100.00
2023-05-14T00:39:41.049Z,100.00
2023-05-14T00:42:07.811Z,100.00
2023-05-14T00:44:34.853Z,100.00
2023-05-14T00:47:01.890Z,100.00
2023-05-14T00:49:28.952Z,100.00
2023-05-14T00:51:56.048Z,100.00
2023-05-14T00:54:22.887Z,100.00
2023-05-14T00:56:51.115Z,100.00
2023-05-14T00:59:17.654Z,100.00
2023-05-14T01:01:44.331Z,100.00
2023-05-14T01:04:12.109Z,100.00
2023-05-14T01:06:54.410Z,100.00
2023-05-14T01:09:32.307Z,100.00
2023-05-14T01:12:08.128Z,100.00
2023-05-14T01:14:41.941Z,100.00
2023-05-14T01:17:11.671Z,100.00
2023-05-14T01:19:40.964Z,100.00
2023-05-14T01:22:09.241Z,100.00
2023-05-14T01:24:35.973Z,100.00
2023-05-14T01:27:10.309Z,100.00
2023-05-14T01:29:40.716Z,100.00
2023-05-14T01:32:09.000Z,100.00
2023-05-14T01:34:36.652Z,100.00
2023-05-14T01:37:05.377Z,100.00
2023-05-14T01:39:33.850Z,100.00
2023-05-14T01:42:01.202Z,100.00
2023-05-14T01:44:28.044Z,100.00
2023-05-14T01:46:54.693Z,100.00
2023-05-14T01:49:21.342Z,100.00
2023-05-14T01:51:48.081Z,100.00
2023-05-14T01:54:14.595Z,100.00
2023-05-14T01:56:42.542Z,100.00
2023-05-14T01:59:09.115Z,100.00
2023-05-14T02:01:36.222Z,100.00
2023-05-14T02:04:03.316Z,100.00
2023-05-14T02:06:29.994Z,100.00
2023-05-14T02:08:56.519Z,100.00
2023-05-14T02:11:23.174Z,100.00
2023-05-14T02:13:51.107Z,100.00
2023-05-14T02:16:17.768Z,100.00
2023-05-14T02:18:44.327Z,100.00
2023-05-14T02:21:11.045Z,100.00
2023-05-14T02:23:42.030Z,100.00
2023-05-14T02:26:09.616Z,100.00
2023-05-14T02:28:36.350Z,100.00
2023-05-14T02:31:04.466Z,100.00
2023-05-14T02:33:31.054Z,100.00
2023-05-14T02:35:57.713Z,100.00
2023-05-14T02:38:24.258Z,100.00
2023-05-14T02:40:50.894Z,100.00
2023-05-14T02:43:17.463Z,100.00
2023-05-14T02:45:44.165Z,100.00
2023-05-14T02:48:12.221Z,100.00
2023-05-14T02:50:39.079Z,100.00
2023-05-14T02:53:05.662Z,100.00
2023-05-14T02:55:32.411Z,100.00
2023-05-14T02:57:58.992Z,100.00
2023-05-14T03:00:25.943Z,100.00
2023-05-14T03:02:53.175Z,100.00
2023-05-14T03:05:22.119Z,100.00
2023-05-14T03:07:49.956Z,100.00
2023-05-14T03:10:16.848Z,100.00
2023-05-14T03:12:43.687Z,100.00
2023-05-14T03:15:11.498Z,100.00
2023-05-14T03:17:38.067Z,100.00
2023-05-14T03:20:05.556Z,100.00
2023-05-14T03:22:33.499Z,100.00
2023-05-14T03:25:00.134Z,100.00
2023-05-14T03:27:26.718Z,100.00
2023-05-14T03:29:53.377Z,100.00
2023-05-14T03:32:20.031Z,100.00
2023-05-14T03:34:47.029Z,100.00
2023-05-14T03:37:13.660Z,100.00
2023-05-14T03:39:41.711Z,100.00
2023-05-14T03:42:08.261Z,100.00
2023-05-14T03:44:34.858Z,100.00
2023-05-14T03:47:01.438Z,100.00
2023-05-14T03:49:28.204Z,100.00
2023-05-14T03:51:55.576Z,100.00
2023-05-14T03:54:22.190Z,100.00
2023-05-14T03:56:50.107Z,100.00
2023-05-14T03:59:16.762Z,100.00
2023-05-14T04:01:43.691Z,100.00
2023-05-14T04:04:10.467Z,100.00
2023-05-14T04:06:37.189Z,100.00
2023-05-14T04:09:03.965Z,100.00
2023-05-14T04:11:30.564Z,100.00
2023-05-14T04:13:58.600Z,100.00
2023-05-14T04:16:25.205Z,100.00
2023-05-14T04:18:51.982Z,100.00
2023-05-14T04:21:18.553Z,100.00
2023-05-14T04:23:45.343Z,100.00
2023-05-14T04:26:12.012Z,100.00
2023-05-14T04:28:38.668Z,100.00
2023-05-14T04:31:06.616Z,100.00
2023-05-14T04:33:33.232Z,100.00
2023-05-14T04:35:59.803Z,100.00
2023-05-14T04:38:26.365Z,100.00
2023-05-14T04:40:53.018Z,99.36
2023-05-14T04:43:19.662Z,98.64
2023-05-14T04:45:46.241Z,96.50
2023-05-14T04:48:14.246Z,96.25
2023-05-14T04:50:40.802Z,95.53
2023-05-14T04:53:07.369Z,95.67
2023-05-14T04:55:34.188Z,96.25
2023-05-14T04:58:00.857Z,95.58
2023-05-14T05:00:27.467Z,95.38
2023-05-14T05:02:54.434Z,95.93
2023-05-14T05:05:22.834Z,96.94
2023-05-14T05:07:49.729Z,97.08
2023-05-14T05:10:16.438Z,97.62
2023-05-14T05:12:43.071Z,97.40
2023-05-14T05:15:09.891Z,97.20
2023-05-14T05:17:36.609Z,97.35
2023-05-14T05:20:03.548Z,98.12
2023-05-14T05:22:31.533Z,98.37
2023-05-14T05:24:58.063Z,98.42
2023-05-14T05:27:24.819Z,98.89
2023-05-14T05:29:51.346Z,99.81
2023-05-14T05:32:17.967Z,100.00
2023-05-14T05:34:44.522Z,100.00
2023-05-14T05:37:11.116Z,100.00
2023-05-14T05:39:39.063Z,100.00
2023-05-14T05:42:06.649Z,100.00
2023-05-14T05:44:33.189Z,100.00
2023-05-14T05:46:59.894Z,100.00
2023-05-14T05:49:26.463Z,100.00
2023-05-14T05:51:53.032Z,100.00
2023-05-14T05:54:19.571Z,100.00
2023-05-14T05:56:47.556Z,100.00
2023-05-14T05:59:14.103Z,100.00
2023-05-14T06:01:40.780Z,100.00
2023-05-14T06:04:07.305Z,100.00
2023-05-14T06:06:33.947Z,100.00
2023-05-14T06:09:00.627Z,100.00
2023-05-14T06:11:27.800Z,100.00
2023-05-14T06:13:55.704Z,99.37
2023-05-14T06:16:22.440Z,99.88
2023-05-14T06:18:49.096Z,99.80
2023-05-14T06:21:15.681Z,100.00
2023-05-14T06:23:42.238Z,100.00
2023-05-14T06:26:08.839Z,100.00
2023-05-14T06:28:35.384Z,99.63
2023-05-14T06:31:03.533Z,99.29
2023-05-14T06:33:30.051Z,98.87
2023-05-14T06:35:58.927Z,98.83
2023-05-14T06:38:25.486Z,98.58
2023-05-14T06:40:52.221Z,98.33
2023-05-14T06:43:18.946Z,97.84
2023-05-14T06:45:48.674Z,97.87
2023-05-14T06:48:16.819Z,97.93
2023-05-14T06:50:43.541Z,97.77
2023-05-14T06:53:10.292Z,97.63
2023-05-14T06:55:37.095Z,97.46
2023-05-14T06:58:03.727Z,97.24
2023-05-14T07:00:30.268Z,96.14
2023-05-14T07:02:56.795Z,94.79
2023-05-14T07:05:25.096Z,93.07
2023-05-14T07:07:51.668Z,92.04
2023-05-14T07:10:18.226Z,91.42
2023-05-14T07:12:44.792Z,92.10
2023-05-14T07:15:11.731Z,92.44
2023-05-14T07:17:38.293Z,92.24
2023-05-14T07:20:06.100Z,92.31
2023-05-14T07:22:34.048Z,91.67
2023-05-14T07:25:00.560Z,90.08
2023-05-14T07:27:27.107Z,90.15
2023-05-14T07:29:53.684Z,90.38
2023-05-14T07:32:20.199Z,90.43
2023-05-14T07:34:46.752Z,88.70
2023-05-14T07:37:13.299Z,87.92
2023-05-14T07:39:41.154Z,86.85
2023-05-14T07:42:07.724Z,86.63
2023-05-14T07:44:34.361Z,84.51
2023-05-14T07:47:00.936Z,84.13
2023-05-14T07:49:27.528Z,83.10
2023-05-14T07:51:54.067Z,83.49
2023-05-14T07:54:20.606Z,81.93
2023-05-14T07:56:48.465Z,79.23
2023-05-14T07:59:15.055Z,79.79
2023-05-14T08:01:41.643Z,78.40
2023-05-14T08:04:08.423Z,78.53
2023-05-14T08:06:35.053Z,78.93
2023-05-14T08:09:01.591Z,75.34
2023-05-14T08:11:28.122Z,73.61
2023-05-14T08:13:56.118Z,74.84
2023-05-14T08:16:25.571Z,74.11
2023-05-14T08:18:52.451Z,73.11
2023-05-14T08:21:19.064Z,73.70
2023-05-14T08:23:45.620Z,72.99
2023-05-14T08:26:12.185Z,72.51
2023-05-14T08:28:38.769Z,73.09
2023-05-14T08:31:06.739Z,72.67
2023-05-14T08:33:33.324Z,71.46
2023-05-14T08:36:00.000Z,70.87
2023-05-14T08:38:27.012Z,68.07
2023-05-14T08:40:56.869Z,66.90
2023-05-14T08:43:27.114Z,67.69
2023-05-14T08:45:57.943Z,68.18
2023-05-14T08:48:29.094Z,68.91
2023-05-14T08:50:56.164Z,67.55
2023-05-14T08:53:22.737Z,66.88
2023-05-14T08:55:50.820Z,65.94
2023-05-14T08:58:17.446Z,64.11
2023-05-14T09:00:44.119Z,62.58
2023-05-14T09:03:11.960Z,60.90
2023-05-14T09:05:41.117Z,60.17
2023-05-14T09:08:07.637Z,60.73
2023-05-14T09:10:34.200Z,59.37
2023-05-14T09:13:00.752Z,59.45
2023-05-14T09:15:29.030Z,58.20
2023-05-14T09:17:56.496Z,56.69
2023-05-14T09:20:24.818Z,57.85
2023-05-14T09:22:54.335Z,57.62
2023-05-14T09:25:26.917Z,57.87
2023-05-14T09:27:53.532Z,59.02
2023-05-14T09:30:20.066Z,56.23
2023-05-14T09:32:46.919Z,56.38
2023-05-14T09:35:15.540Z,57.25
2023-05-14T09:37:46.153Z,58.63
2023-05-14T09:40:15.454Z,58.42
2023-05-14T09:42:42.279Z,58.70
2023-05-14T09:45:09.688Z,58.44
2023-05-14T09:47:36.626Z,57.90
2023-05-14T09:50:03.828Z,56.26
2023-05-14T09:52:30.417Z,55.79
2023-05-14T09:54:57.181Z,55.41
2023-05-14T09:57:25.063Z,56.91
2023-05-14T09:59:51.613Z,58.23
2023-05-14T10:02:23.638Z,55.99
2023-05-14T10:04:50.912Z,50.07
2023-05-14T10:07:21.636Z,53.06
2023-05-14T10:09:48.761Z,49.46
2023-05-14T10:12:19.842Z,50.38
2023-05-14T10:14:50.338Z,50.81
2023-05-14T10:17:19.430Z,51.01
2023-05-14T10:19:52.456Z,49.28
2023-05-14T10:22:23.136Z,48.58
2023-05-14T10:24:50.747Z,48.45
2023-05-14T10:27:17.855Z,49.32
2023-05-14T10:29:52.965Z,51.14
2023-05-14T10:32:20.753Z,50.44
2023-05-14T10:34:47.369Z,49.74
2023-05-14T10:37:15.545Z,49.95
2023-05-14T10:39:43.743Z,48.62
2023-05-14T10:42:12.255Z,50.63
2023-05-14T10:44:45.167Z,50.01
2023-05-14T10:47:14.225Z,50.16
2023-05-14T10:49:43.811Z,49.36
2023-05-14T10:52:11.866Z,48.75
2023-05-14T10:54:38.642Z,45.92
2023-05-14T10:57:11.493Z,44.62
2023-05-14T10:59:41.791Z,48.07
2023-05-14T11:02:19.082Z,42.55
2023-05-14T11:04:56.098Z,45.55
2023-05-14T11:07:25.044Z,46.49
2023-05-14T11:09:51.600Z,45.25
2023-05-14T11:12:18.400Z,45.78
2023-05-14T11:14:45.015Z,46.91
2023-05-14T11:17:12.042Z,47.21
2023-05-14T11:19:43.519Z,46.89
2023-05-14T11:22:09.980Z,46.70
2023-05-14T11:24:36.591Z,47.06
2023-05-14T11:27:04.848Z,46.94
2023-05-14T11:29:31.566Z,47.40
2023-05-14T11:31:58.285Z,47.12
2023-05-14T11:34:25.390Z,47.31
2023-05-14T11:36:53.391Z,47.91
2023-05-14T11:39:19.964Z,48.66
2023-05-14T11:41:46.639Z,47.98
2023-05-14T11:44:13.332Z,48.23
2023-05-14T11:46:40.051Z,47.37
2023-05-14T11:49:06.953Z,47.23
2023-05-14T11:51:33.582Z,47.54
2023-05-14T11:54:01.589Z,46.90
2023-05-14T11:56:28.513Z,46.92
2023-05-14T11:58:56.967Z,46.35
2023-05-14T12:01:23.753Z,47.03
2023-05-14T12:03:51.265Z,47.70
2023-05-14T12:06:18.249Z,46.14
2023-05-14T12:08:47.581Z,46.34
2023-05-14T12:11:20.835Z,46.13
2023-05-14T12:13:47.456Z,45.13
2023-05-14T12:16:14.094Z,47.68
2023-05-14T12:18:40.907Z,47.54
2023-05-14T12:21:07.534Z,48.96
2023-05-14T12:23:34.291Z,49.72
2023-05-14T12:26:04.332Z,48.79
2023-05-14T12:28:33.848Z,45.97
2023-05-14T12:31:02.196Z,45.99
2023-05-14T12:33:29.080Z,45.75
2023-05-14T12:35:55.725Z,43.15
2023-05-14T12:38:22.285Z,42.79
2023-05-14T12:40:48.949Z,42.06
2023-05-14T12:43:15.499Z,39.89
2023-05-14T12:45:43.466Z,40.06
2023-05-14T12:48:10.094Z,37.79
2023-05-14T12:50:36.846Z,39.05
2023-05-14T12:53:03.483Z,40.39
2023-05-14T12:55:30.306Z,40.78
2023-05-14T12:57:56.976Z,40.73
2023-05-14T13:00:23.771Z,39.84
2023-05-14T13:02:51.898Z,38.95
2023-05-14T13:05:18.483Z,38.94
2023-05-14T13:07:45.056Z,38.43
2023-05-14T13:10:12.030Z,38.39
2023-05-14T13:12:38.678Z,40.44
2023-05-14T13:15:06.233Z,39.96
2023-05-14T13:17:32.926Z,39.24
2023-05-14T13:20:00.906Z,38.28
2023-05-14T13:22:27.587Z,36.81
2023-05-14T13:24:54.209Z,37.11
2023-05-14T13:27:20.882Z,36.83
2023-05-14T13:29:47.466Z,34.95
2023-05-14T13:32:13.989Z,36.39
2023-05-14T13:34:40.595Z,35.33
2023-05-14T13:37:08.542Z,34.23
2023-05-14T13:39:35.216Z,35.74
2023-05-14T13:42:01.768Z,35.97
2023-05-14T13:44:28.596Z,36.05
2023-05-14T13:46:55.256Z,34.40
2023-05-14T13:49:21.900Z,33.98
2023-05-14T13:51:48.463Z,31.97
2023-05-14T13:54:16.477Z,34.02
2023-05-14T13:56:43.084Z,33.28
2023-05-14T13:59:09.761Z,32.71
2023-05-14T14:01:36.460Z,33.45
2023-05-14T14:04:03.216Z,33.57
2023-05-14T14:06:31.229Z,33.38
2023-05-14T14:08:57.948Z,32.52
2023-05-14T14:11:25.895Z,29.64
2023-05-14T14:13:52.884Z,31.58
2023-05-14T14:16:19.472Z,31.25
2023-05-14T14:18:46.214Z,31.60
2023-05-14T14:21:12.870Z,30.14
2023-05-14T14:23:39.738Z,30.51
2023-05-14T14:26:06.628Z,32.04
2023-05-14T14:28:34.578Z,31.75
2023-05-14T14:31:01.135Z,30.97
2023-05-14T14:33:28.175Z,29.73
2023-05-14T14:35:54.744Z,30.43
2023-05-14T14:38:21.380Z,30.42
2023-05-14T14:40:47.928Z,27.98
2023-05-14T14:43:14.796Z,31.47
2023-05-14T14:45:42.792Z,32.50
2023-05-14T14:48:28.709Z,31.30
2023-05-14T14:50:55.464Z,28.81
2023-05-14T14:53:22.623Z,29.38
2023-05-14T14:55:49.443Z,28.23
2023-05-14T14:58:16.376Z,30.47
2023-05-14T15:00:44.539Z,30.24
2023-05-14T15:03:11.990Z,30.86
2023-05-14T15:05:40.365Z,28.62
2023-05-14T15:08:06.912Z,30.17
2023-05-14T15:10:33.598Z,29.90
2023-05-14T15:13:00.189Z,29.33
2023-05-14T15:15:26.767Z,29.45
2023-05-14T15:17:54.686Z,30.17
2023-05-14T15:20:21.329Z,29.49
2023-05-14T15:22:47.963Z,30.00
2023-05-14T15:25:14.599Z,31.09
2023-05-14T15:27:41.179Z,31.43
2023-05-14T15:30:08.952Z,30.69
2023-05-14T15:32:35.585Z,31.11
2023-05-14T15:35:03.819Z,32.12
2023-05-14T15:37:36.468Z,32.30
2023-05-14T15:40:03.795Z,30.27
2023-05-14T15:42:30.369Z,30.73
2023-05-14T15:44:57.036Z,31.73
2023-05-14T15:47:23.584Z,30.34
2023-05-14T15:49:50.247Z,30.22
2023-05-14T15:52:18.170Z,30.46
2023-05-14T15:54:46.748Z,30.09
2023-05-14T15:57:13.724Z,30.20
2023-05-14T15:59:40.397Z,30.41
2023-05-14T16:02:07.213Z,29.25
2023-05-14T16:04:34.120Z,29.18
2023-05-14T16:07:01.748Z,29.63
2023-05-14T16:09:29.974Z,28.44
2023-05-14T16:11:56.665Z,29.72
2023-05-14T16:14:23.356Z,28.58
2023-05-14T16:16:50.188Z,27.67
2023-05-14T16:19:17.061Z,27.44
2023-05-14T16:21:43.831Z,26.16
2023-05-14T16:24:10.635Z,26.78
2023-05-14T16:26:38.650Z,27.41
2023-05-14T16:29:05.487Z,28.85
2023-05-14T16:31:32.391Z,29.08
2023-05-14T16:33:59.165Z,28.15
2023-05-14T16:36:27.195Z,29.03
2023-05-14T16:39:06.643Z,28.37
2023-05-14T16:41:34.337Z,29.34
2023-05-14T16:44:02.511Z,28.64
2023-05-14T16:46:29.554Z,28.77
2023-05-14T16:48:56.257Z,28.60
2023-05-14T16:51:22.849Z,29.28
2023-05-14T16:53:49.391Z,29.86
2023-05-14T16:56:16.156Z,29.52
2023-05-14T16:58:42.987Z,30.51
2023-05-14T17:01:11.040Z,31.39
2023-05-14T17:03:37.621Z,31.72
2023-05-14T17:06:04.541Z,31.93
2023-05-14T17:08:31.084Z,30.94
2023-05-14T17:10:57.634Z,31.75
2023-05-14T17:13:24.206Z,32.44
2023-05-14T17:15:50.880Z,32.77
2023-05-14T17:18:18.862Z,32.92
2023-05-14T17:20:45.545Z,32.89
2023-05-14T17:23:12.236Z,33.28
2023-05-14T17:25:38.855Z,34.17
2023-05-14T17:28:05.410Z,34.25
2023-05-14T17:30:31.967Z,32.94
2023-05-14T17:32:58.606Z,34.06
2023-05-14T17:35:27.008Z,34.20
2023-05-14T17:37:53.730Z,33.47
2023-05-14T17:40:20.292Z,33.46
2023-05-14T17:42:46.898Z,33.10
2023-05-14T17:45:13.622Z,34.17
2023-05-14T17:47:40.180Z,34.53
2023-05-14T17:50:08.136Z,34.77
2023-05-14T17:52:36.259Z,35.46
2023-05-14T17:55:03.094Z,36.82
2023-05-14T17:57:29.689Z,37.47
2023-05-14T17:59:56.237Z,37.65
2023-05-14T18:02:22.766Z,37.93
2023-05-14T18:04:49.532Z,40.03
2023-05-14T18:07:16.323Z,40.56
2023-05-14T18:09:44.326Z,41.01
2023-05-14T18:12:10.863Z,41.52
2023-05-14T18:14:37.474Z,42.30
2023-05-14T18:17:04.386Z,42.65
2023-05-14T18:19:31.423Z,42.63
2023-05-14T18:21:57.953Z,44.26
2023-05-14T18:24:24.664Z,44.06
2023-05-14T18:26:52.703Z,44.05
2023-05-14T18:29:19.295Z,44.57
2023-05-14T18:31:45.876Z,45.57
2023-05-14T18:34:12.514Z,46.68
2023-05-14T18:36:39.098Z,48.42
2023-05-14T18:39:05.632Z,49.58
2023-05-14T18:41:32.159Z,49.74
2023-05-14T18:44:00.246Z,50.82
2023-05-14T18:46:27.130Z,51.73
2023-05-14T18:48:53.821Z,51.84
2023-05-14T18:51:20.518Z,52.94
2023-05-14T18:53:47.142Z,53.35
2023-05-14T18:56:13.749Z,53.90
2023-05-14T18:58:40.392Z,54.37
2023-05-14T19:01:08.322Z,55.39
2023-05-14T19:03:35.067Z,56.05
2023-05-14T19:06:01.717Z,56.63
2023-05-14T19:08:28.306Z,57.13
2023-05-14T19:10:55.537Z,57.06
2023-05-14T19:13:22.167Z,57.44
2023-05-14T19:15:48.752Z,56.56
2023-05-14T19:18:16.871Z,55.34
2023-05-14T19:20:43.364Z,56.18
2023-05-14T19:23:10.064Z,54.18
2023-05-14T19:25:36.758Z,54.31
2023-05-14T19:31:49.615Z,54.96
2023-05-14T19:34:17.485Z,55.07
2023-05-14T19:36:44.051Z,55.54
2023-05-14T19:39:10.628Z,56.26
2023-05-14T19:41:37.152Z,56.88
2023-05-14T19:44:03.660Z,57.51
2023-05-14T19:46:30.329Z,57.97
2023-05-14T19:48:56.835Z,58.66
2023-05-14T19:51:24.902Z,59.11
2023-05-14T19:53:51.434Z,59.47
2023-05-14T19:56:18.755Z,59.81
2023-05-14T19:58:45.340Z,60.27
2023-05-14T20:01:12.055Z,60.58
2023-05-14T20:03:38.798Z,60.99
2023-05-14T20:06:05.720Z,61.39
2023-05-14T20:08:33.598Z,61.59
2023-05-14T20:11:00.293Z,62.12
2023-05-14T20:13:26.799Z,62.17
2023-05-14T20:15:53.398Z,63.01
2023-05-14T20:18:19.912Z,63.06
2023-05-14T20:20:46.515Z,63.49
2023-05-14T20:23:13.311Z,63.41
2023-05-14T20:25:41.259Z,63.93
2023-05-14T20:28:07.809Z,64.46
2023-05-14T20:30:34.482Z,64.93
2023-05-14T20:33:01.071Z,66.10
2023-05-14T20:35:27.795Z,66.02
2023-05-14T20:37:54.439Z,66.35
2023-05-14T20:40:21.707Z,66.87
2023-05-14T20:42:49.556Z,67.13
2023-05-14T20:45:16.241Z,67.52
2023-05-14T20:47:42.797Z,68.18
2023-05-14T20:50:09.876Z,69.16
2023-05-14T20:52:36.471Z,70.24
2023-05-14T20:55:03.326Z,70.92
2023-05-14T20:57:29.891Z,71.38
2023-05-14T20:59:58.963Z,71.96
2023-05-14T21:02:25.691Z,71.56
2023-05-14T21:04:52.473Z,71.85
2023-05-14T21:07:19.079Z,72.72
2023-05-14T21:09:45.692Z,73.95
2023-05-14T21:12:12.318Z,74.50
2023-05-14T21:14:38.943Z,75.41
2023-05-14T21:17:06.897Z,75.53
2023-05-14T21:19:33.545Z,75.66
2023-05-14T21:22:00.136Z,75.91
2023-05-14T21:24:26.694Z,76.53
2023-05-14T21:26:53.735Z,77.58
2023-05-14T21:29:20.534Z,77.71
2023-05-14T21:31:47.795Z,78.39
2023-05-14T21:34:15.772Z,78.72
2023-05-14T21:36:42.405Z,78.96
2023-05-14T21:39:09.180Z,79.45
2023-05-14T21:41:35.745Z,78.90
2023-05-14T21:44:02.319Z,79.22
2023-05-14T21:46:28.964Z,78.91
2023-05-14T21:48:55.680Z,79.13
2023-05-14T21:51:24.083Z,79.81
2023-05-14T21:53:50.681Z,79.52
2023-05-14T21:56:17.200Z,79.33
2023-05-14T21:58:44.607Z,79.13
2023-05-14T22:01:11.211Z,80.40
2023-05-14T22:03:37.991Z,80.76
2023-05-14T22:06:05.752Z,80.69
2023-05-14T22:08:33.738Z,80.77
2023-05-14T22:11:00.289Z,80.81
2023-05-14T22:13:26.923Z,80.82
2023-05-14T22:16:01.495Z,80.41
2023-05-14T22:18:35.696Z,80.91
2023-05-14T22:21:02.227Z,81.39
2023-05-14T22:23:28.841Z,82.82
2023-05-14T22:25:57.148Z,83.28
2023-05-14T22:28:23.921Z,83.55
2023-05-14T22:30:50.472Z,83.86
2023-05-14T22:33:17.066Z,84.09
2023-05-14T22:35:43.597Z,84.58
2023-05-14T22:38:10.208Z,84.78
2023-05-14T22:40:36.714Z,84.80
2023-05-14T22:43:04.719Z,85.16
2023-05-14T22:45:31.253Z,85.51
2023-05-14T22:47:58.376Z,85.22
2023-05-14T22:50:25.888Z,85.75
2023-05-14T22:52:52.613Z,85.73
2023-05-14T22:55:19.327Z,86.95
2023-05-14T22:57:45.918Z,87.40
2023-05-14T23:00:14.659Z,87.70
2023-05-14T23:02:41.283Z,87.65
2023-05-14T23:05:08.681Z,87.97
2023-05-14T23:07:35.348Z,87.94
2023-05-14T23:10:02.036Z,88.21
2023-05-14T23:12:28.914Z,88.22
2023-05-14T23:14:55.473Z,88.30
2023-05-14T23:17:23.569Z,88.24
2023-05-14T23:19:50.209Z,88.58
2023-05-14T23:22:16.865Z,88.08
2023-05-14T23:24:43.437Z,88.83
2023-05-14T23:27:10.820Z,88.61
2023-05-14T23:29:37.379Z,88.63
2023-05-14T23:32:04.296Z,88.59
2023-05-14T23:34:32.937Z,88.86
2023-05-14T23:36:59.602Z,88.98
2023-05-14T23:39:26.656Z,89.53
2023-05-14T23:41:53.264Z,89.72
2023-05-14T23:44:19.772Z,89.55
2023-05-14T23:46:46.456Z,89.36
2023-05-14T23:49:13.069Z,89.25
2023-05-14T23:51:41.288Z,89.42
2023-05-14T23:54:07.847Z,89.57
2023-05-14T23:56:35.680Z,89.21
2023-05-14T23:59:02.236Z,89.22
